Warrendale, Pennsylvania
Current Conditions -  °F | °C
As of 1:15 PM on Thursday 18 Dec 2014 (Local Time) from KBTP Reporting Station
Overcast Overcast  
Wind Chill: 20°   Ceiling: 1700
Heat Index: 28°   Visibility: 10mi
Dew Point: 21°   Wind: 9mph
Humidity: 74%   Direction: 250°WSW
Pressure: 30.15"   Gusts: NA
Location:  40.65°N, 80.08°W
Report Text: KBTP 181815Z AUTO 25008KT 10SM OVC017 M02/M06 A3015 RMK AO1
Loading
Personal Weather Stations






























Interactive Weather Map New forecast layout! Learn more

10-Day Weather Forecast

Advertisements
Track Severe Weather on mobile